Details From KPWT - Bremerton National
To KCLM - William R Fairchild Intl
Flight Number -
Tags Routegen Generated
Created
Modified
Stats Distance 51 nm / 95 km
Max Altitude 200 ft / 61 m
Waypoints 5
Social Downloads 2
Likes 0
Share VATSIM

Download

Looking for another format? Having issues loading an existing format? Contact us
Advertisement - Login to hide

Notes

Departing runway 3 KPWT. Arriving runway 10 KCLM.

Route

KPWT +47.56_-122.70 +47.83_-123.04 +48.10_-123.38 KCLM

ID Type Via Altitude Latitude Longitude Leg Dist Tot Dist Heading (true) Name
O KPWT APT - 200 ft / 61 m 47.49716˚ -122.75825˚ - 0 nm - -
+47.56_-122.70 DME - 200 ft / 61 m 47.55804˚ -122.70032˚ 4 nm 4 nm 33° / 33° -
+47.83_-123.04 DME - 200 ft / 61 m 47.82818˚ -123.04093˚ 21 nm 25 nm 320° / 320° -
+48.10_-123.38 DME - 200 ft / 61 m 48.09833˚ -123.38153˚ 21 nm 46 nm 320° / 320° -
O KCLM APT - 0 ft / 0 m 48.11666˚ -123.48637˚ 4 nm 51 nm 285° / 285° -

Altitude Profile

Advertisement - Login to hide

KPWT

Details ICAO KPWT (PWT)
Name Bremerton National
Region United States
Timezone America/Los_Angeles (UTC-8.0)
Stats Elevation 444 ft / 135 m (AMSL)
Location 47.490240° -122.764815°
Runways 1
Magnetic Variation 15.776° E

METAR

KPWT 131721Z AUTO 03006KT 3/4SM BR OVC003 04/04 A3044 RMK AO2

Decode

TAF

TAF KPWT 131124Z 1312/1412 00000KT 1SM BR SKC TEMPO 1312/1316 1/2SM FG VV002 FM141100 04006KT 2SM BR BKN002

Decode

Departure Runways

ID Width Length Bearing (true) Bearing (mag) Surface Threshold Offset Overrun Length
01 151 ft / 46 m 5,997 ft / 1,828 m 32.69° 16.91° Asphalt 0 ft / 0 m 0 ft / 0 m
19 151 ft / 46 m 5,997 ft / 1,828 m 212.70° 196.92° Asphalt 0 ft / 0 m 1,243 ft / 379 m

KCLM

Details ICAO KCLM (CLM)
Name WILLIAM R FAIRCHILD INTL
Region United States
Timezone America/Los_Angeles (UTC-8.0)
Stats Elevation 291 ft / 89 m (AMSL)
Location 48.120829° -123.500070°
Runways 2
Magnetic Variation 16.053° E

METAR

KCLM 131653Z AUTO 15003KT 10SM CLR 03/02 A3047 RMK AO2 SLP320 T00330022

Decode

TAF

KCLM 131124Z 1312/1412 25005KT P6SM SKC TEMPO 1314/1318 2SM BR SCT002 FM141100 VRB03KT 2SM BR SCT002

Decode

Destination Runways

ID Width Length Bearing (true) Bearing (mag) Surface Threshold Offset Overrun Length
08 151 ft / 46 m 6,353 ft / 1,936 m 104.61° 88.56° Asphalt 0 ft / 0 m 0 ft / 0 m
13 49 ft / 15 m 3,244 ft / 989 m 147.64° 131.59° Asphalt 0 ft / 0 m 0 ft / 0 m
26 151 ft / 46 m 6,353 ft / 1,936 m 284.63° 268.58° Asphalt 1,355 ft / 413 m 0 ft / 0 m
31 49 ft / 15 m 3,244 ft / 989 m 327.64° 311.59° Asphalt 0 ft / 0 m 0 ft / 0 m

Approach Navaids

Runway Type Ident Frequency Range Bearing (true) Bearing (mag) Slope Elevation
08 Localiser ICLM 108.90 MHz 18 nm / 33 km 104.64° 88.59° - 291 ft / 89 m (AMSL)
08 Glidescope ICLM 108.90 MHz 10 nm / 19 km 104.62° 88.57° 3.00° 281 ft / 86 m (AMSL)

Popular Alternatives